LGKF/EFL METAR and TAF weather

Enter ICAO airport designator
Station Type Date Time Source
LGKF METAR 2020/07/03 13:50 UTC NOAA

LGKF 031350Z 27006KT CAVOK 33/20 Q1008


Station Type Date Time Source
LGKF Decoded METAR 2020/07/03 13:50 UTC NOAA

Kefalhnia Airport , Greece (LGKF) 38-07N 020-30E 22M
Jul 03, 2020 - 09:50 AM EDT / 2020.07.03 1350 UTC
Wind: from the W (270 degrees) at 7 MPH (6 KT):0
Visibility: greater than 7 mile(s):0
Temperature: 91 F (33 C)
Heat index: 94.6 F (34.8 C):1
Dew Point: 68 F (20 C)
Relative Humidity: 46%
Pressure (altimeter): 29.77 in. Hg (1008 hPa)
ob: LGKF 031350Z 27006KT CAVOK 33/20 Q1008
cycle: 14

Station Type Date Time Source
LGKF TAF 2011/03/20 15:06 UTC NOAA

TAF LGKF 201400Z 2015/2103 05012KT 9999 FEW020 SCT080 PROB30
TEMPO 2015/2003 6000 RA SCT020 BKN060 PROB30
TEMPO 2015/2021 4000 TSRA SCT015 FEW018CB BKN025

Example: see airport list